Time;durP1;ratioP1;P1;durP2;ratioP2;P2;SDS_P1;SDS_P2;PMS_P1;PMS_P2;Temp;Humidity;BMP_temperature;BMP_pressure;BME280_temperature;BME280_humidity;BME280_pressure;Samples;Min_cycle;Max_cycle;Signal;HPM_P1;HPM_P2
2023/12/16 00:01:50;;;;;;;16.48;8.90;;;;;;;-142.57;100.00;55701.03;4954515;28;20030;-75
2023/12/16 00:04:16;;;;;;;15.40;8.48;;;;;;;-142.57;100.00;55705.06;4954181;28;20126;-75
2023/12/16 00:06:41;;;;;;;15.20;8.02;;;;;;;-142.57;100.00;55703.06;4953502;28;20072;-75
2023/12/16 00:09:07;;;;;;;21.67;9.88;;;;;;;-142.57;100.00;55697.00;4937110;28;20027;-77
2023/12/16 00:11:32;;;;;;;20.63;10.35;;;;;;;-142.57;100.00;55674.75;4972930;28;20117;-78
2023/12/16 00:13:58;;;;;;;22.73;11.00;;;;;;;-142.57;100.00;55699.00;4928357;29;20509;-78
2023/12/16 00:16:25;;;;;;;21.65;11.18;;;;;;;-142.57;100.00;55741.44;4959399;28;20275;-78
2023/12/16 00:18:51;;;;;;;21.35;11.68;;;;;;;-142.57;100.00;55701.03;4958119;28;20445;-76
2023/12/16 00:21:17;;;;;;;25.38;11.90;;;;;;;-142.57;100.00;55721.22;4963571;28;20030;-76
2023/12/16 00:23:42;;;;;;;22.92;12.05;;;;;;;-142.57;100.00;55715.16;4967359;28;20108;-78
2023/12/16 00:26:08;;;;;;;24.95;12.43;;;;;;;-142.57;100.00;55707.09;4966596;28;20390;-77
2023/12/16 00:28:34;;;;;;;27.63;12.23;;;;;;;-142.57;100.00;55729.31;4959324;28;20041;-77
2023/12/16 00:30:59;;;;;;;26.88;11.93;;;;;;;-142.57;100.00;55745.47;4972759;28;20185;-77
2023/12/16 00:33:25;;;;;;;21.67;11.02;;;;;;;-142.57;100.00;55697.00;4954337;28;20070;-78
2023/12/16 00:35:50;;;;;;;26.02;11.85;;;;;;;-142.57;100.00;55711.13;4955539;28;20528;-78
2023/12/16 00:38:16;;;;;;;21.13;10.82;;;;;;;-142.57;100.00;55701.03;4953673;28;20039;-79
2023/12/16 00:40:41;;;;;;;20.63;11.00;;;;;;;-142.57;100.00;55705.06;4953098;28;20031;-77
2023/12/16 00:43:08;;;;;;;21.42;11.45;;;;;;;-142.57;100.00;55697.00;4953524;28;20206;-78
2023/12/16 00:45:33;;;;;;;22.42;11.70;;;;;;;-142.57;100.00;55668.69;4954018;28;20027;-78
2023/12/16 00:47:59;;;;;;;19.08;10.45;;;;;;;-142.57;100.00;55697.00;4950715;28;20070;-77
2023/12/16 00:50:24;;;;;;;25.85;11.43;;;;;;;-142.57;100.00;55713.16;4962268;28;20091;-77
2023/12/16 00:52:50;;;;;;;20.98;10.27;;;;;;;-142.57;100.00;55717.19;4955126;28;20035;-78
2023/12/16 00:55:15;;;;;;;25.80;12.05;;;;;;;-142.57;100.00;55745.47;4957243;28;20029;-79
2023/12/16 00:57:41;;;;;;;20.63;10.70;;;;;;;-142.57;100.00;55737.41;4955758;28;20039;-77
2023/12/16 01:00:07;;;;;;;21.70;10.43;;;;;;;-142.57;100.00;55709.09;4961032;28;20071;-77
2023/12/16 01:02:51;;;;;;;26.05;13.07;;;;;;;-142.57;100.00;55686.88;4963000;28;20090;-75
2023/12/16 01:05:17;;;;;;;26.85;12.10;;;;;;;-142.57;100.00;55670.72;4979854;28;20041;-79
2023/12/16 01:07:42;;;;;;;23.58;12.05;;;;;;;-142.57;100.00;55697.00;4979624;28;20067;-76
2023/12/16 01:10:08;;;;;;;29.25;12.85;;;;;;;-142.57;100.00;55662.63;4960131;28;20027;-77
2023/12/16 01:12:33;;;;;;;28.65;12.18;;;;;;;-142.57;100.00;55684.88;4964670;28;20505;-79
2023/12/16 01:14:59;;;;;;;22.08;11.80;;;;;;;-142.57;100.00;55676.78;4955843;28;20019;-77
2023/12/16 01:17:24;;;;;;;28.98;13.82;;;;;;;-142.57;100.00;55745.47;4956896;28;20497;-80
2023/12/16 01:19:50;;;;;;;34.05;15.40;;;;;;;-142.57;100.00;55705.06;4967701;28;20038;-77
2023/12/16 01:22:15;;;;;;;38.15;19.25;;;;;;;-142.57;100.00;55721.22;4956671;28;20023;-77
2023/12/16 01:24:41;;;;;;;33.08;16.55;;;;;;;-142.57;100.00;55741.44;4957094;28;20489;-76
2023/12/16 01:27:06;;;;;;;29.75;14.02;;;;;;;-142.57;100.00;55709.09;4957425;28;20043;-76
2023/12/16 01:29:32;;;;;;;36.25;13.93;;;;;;;-142.57;100.00;55688.91;4967770;28;20109;-76
2023/12/16 01:31:57;;;;;;;33.88;15.15;;;;;;;-142.57;100.00;55672.75;4966765;28;20389;-77
2023/12/16 01:34:23;;;;;;;32.83;15.30;;;;;;;-142.57;100.00;55630.31;4956761;28;20039;-79
2023/12/16 01:36:48;;;;;;;36.55;16.33;;;;;;;-142.57;100.00;55652.53;4954416;28;20070;-78
2023/12/16 01:39:14;;;;;;;29.05;12.73;;;;;;;-142.57;100.00;55668.69;4975710;28;20035;-77
2023/12/16 01:41:42;;;;;;;25.45;12.77;;;;;;;-142.57;100.00;55616.16;4957964;28;20035;-77
2023/12/16 01:44:07;;;;;;;40.30;13.70;;;;;;;-142.57;100.00;55618.19;4939270;29;20107;-78
2023/12/16 01:46:35;;;;;;;28.95;13.25;;;;;;;-142.57;100.00;55634.34;4956810;28;20067;-77
2023/12/16 01:49:01;;;;;;;31.17;14.30;;;;;;;-142.57;100.00;55648.50;4962105;28;20027;-79
2023/12/16 01:51:27;;;;;;;34.40;14.85;;;;;;;-142.57;100.00;55664.66;4975267;28;20042;-77
2023/12/16 01:53:53;;;;;;;38.67;15.45;;;;;;;-142.57;100.00;55604.03;4975311;28;20030;-78
2023/12/16 01:56:20;;;;;;;32.38;14.10;;;;;;;-142.57;100.00;55632.34;4974590;28;20038;-78
2023/12/16 01:58:49;;;;;;;26.27;13.45;;;;;;;-142.57;100.00;55640.41;4975673;28;20497;-77
2023/12/16 02:01:15;;;;;;;27.08;13.43;;;;;;;-142.57;100.00;55640.41;4975091;28;20041;-77
2023/12/16 02:03:41;;;;;;;28.73;13.02;;;;;;;-142.57;100.00;55672.75;4957633;28;20126;-76
2023/12/16 02:06:07;;;;;;;34.05;13.27;;;;;;;-142.57;100.00;55628.28;4975587;28;20039;-76
2023/12/16 02:08:32;;;;;;;29.40;12.77;;;;;;;-142.57;100.00;55624.25;4958148;28;20037;-77
2023/12/16 02:10:59;;;;;;;26.75;12.15;;;;;;;-142.57;100.00;55632.34;4974739;28;20074;-76
2023/12/16 02:13:24;;;;;;;25.20;12.88;;;;;;;-142.57;100.00;55668.69;4975852;28;20602;-77
2023/12/16 02:15:50;;;;;;;24.23;12.60;;;;;;;-142.57;100.00;55648.50;4974580;28;20038;-76
2023/12/16 02:18:16;;;;;;;27.98;12.90;;;;;;;-142.57;100.00;55705.06;4958056;28;20035;-77
2023/12/16 02:20:41;;;;;;;27.13;12.65;;;;;;;-142.57;100.00;55660.63;4957367;28;20066;-76
2023/12/16 02:23:15;;;;;;;27.60;12.57;;;;;;;-142.57;100.00;55650.50;4974561;28;20042;-78
2023/12/16 02:25:42;;;;;;;28.75;13.35;;;;;;;-142.57;100.00;55638.41;4974803;28;20043;-78
2023/12/16 02:28:09;;;;;;;32.58;14.32;;;;;;;-142.57;100.00;55614.16;4975468;28;20043;-78
2023/12/16 02:30:34;;;;;;;29.17;13.48;;;;;;;-142.57;100.00;55616.16;4974278;28;20075;-76
2023/12/16 02:33:00;;;;;;;27.02;12.88;;;;;;;-142.57;100.00;55658.59;4974172;28;20042;-74
2023/12/16 02:35:25;;;;;;;27.40;12.85;;;;;;;-142.57;100.00;55630.31;4974779;28;20477;-77
2023/12/16 02:37:51;;;;;;;28.48;13.77;;;;;;;-142.57;100.00;55612.13;4974505;28;20105;-77
2023/12/16 02:40:17;;;;;;;28.65;13.85;;;;;;;-142.57;100.00;55591.91;4956926;28;20075;-76
2023/12/16 02:42:42;;;;;;;31.02;14.55;;;;;;;-142.57;100.00;55581.81;4956331;28;20385;-77
2023/12/16 02:45:08;;;;;;;26.00;13.75;;;;;;;-142.57;100.00;55634.34;4943308;29;20047;-78
2023/12/16 02:47:33;;;;;;;25.75;13.60;;;;;;;-142.57;100.00;55636.38;4955548;28;20046;-77
2023/12/16 02:50:00;;;;;;;31.02;14.35;;;;;;;-142.57;100.00;55634.34;4970568;28;20031;-75
2023/12/16 02:52:26;;;;;;;30.17;14.82;;;;;;;-142.57;100.00;55608.09;4967404;28;20039;-79
2023/12/16 02:54:51;;;;;;;30.20;13.75;;;;;;;-142.57;100.00;55624.25;4964013;28;20067;-77
2023/12/16 02:57:17;;;;;;;30.05;15.43;;;;;;;-142.57;100.00;55585.84;4962787;28;20031;-77
2023/12/16 02:59:42;;;;;;;34.83;15.05;;;;;;;-142.57;100.00;55587.88;4974227;28;20046;-76
2023/12/16 03:02:08;;;;;;;30.13;14.55;;;;;;;-142.57;100.00;55608.09;4961827;28;20584;-75
2023/12/16 03:04:33;;;;;;;32.42;14.55;;;;;;;-142.57;100.00;55616.16;4962333;28;20137;-78
2023/12/16 03:06:58;;;;;;;29.33;14.82;;;;;;;-142.57;100.00;55604.03;4968227;28;20114;-78
2023/12/16 03:09:24;;;;;;;30.55;14.23;;;;;;;-142.57;100.00;55587.88;4955821;28;20402;-75
2023/12/16 03:11:51;;;;;;;30.35;14.77;;;;;;;-142.57;100.00;55612.13;4967951;28;20058;-77
2023/12/16 03:14:17;;;;;;;30.45;14.82;;;;;;;-142.57;100.00;55608.09;4974174;28;20035;-75
2023/12/16 03:16:43;;;;;;;28.80;14.02;;;;;;;-142.57;100.00;55628.28;4972588;28;20386;-76
2023/12/16 03:19:08;;;;;;;36.17;14.88;;;;;;;-142.57;100.00;55591.91;4961919;28;20103;-76
2023/12/16 03:21:34;;;;;;;29.17;14.73;;;;;;;-142.57;100.00;55600.00;4969630;28;20030;-79
2023/12/16 03:23:59;;;;;;;29.58;13.93;;;;;;;-142.57;100.00;55600.00;4979859;28;20047;-77
2023/12/16 03:26:25;;;;;;;31.65;15.63;;;;;;;-142.57;100.00;55591.91;4969060;28;20086;-76
2023/12/16 03:28:50;;;;;;;28.00;14.30;;;;;;;-142.57;100.00;55595.97;4955166;28;20039;-76
2023/12/16 03:31:16;;;;;;;30.95;15.52;;;;;;;-142.57;100.00;55579.81;4954573;28;20453;-76
2023/12/16 03:33:41;;;;;;;37.85;15.00;;;;;;;-142.57;100.00;55523.22;4962717;28;20398;-78
2023/12/16 03:36:08;;;;;;;33.88;16.33;;;;;;;-142.57;100.00;55490.91;4954470;28;20054;-77
2023/12/16 03:38:33;;;;;;;30.70;15.27;;;;;;;-142.57;100.00;55543.44;4956728;28;20039;-78
2023/12/16 03:40:59;;;;;;;30.75;14.55;;;;;;;-142.57;100.00;55547.47;4955191;28;20363;-76
2023/12/16 03:43:25;;;;;;;32.00;14.95;;;;;;;-142.57;100.00;55551.50;4954226;28;20106;-77
2023/12/16 03:45:50;;;;;;;35.22;14.13;;;;;;;-142.57;100.00;55549.50;4962861;28;20058;-77
2023/12/16 03:48:16;;;;;;;28.55;13.52;;;;;;;-142.57;100.00;55517.16;4973979;28;20043;-77
2023/12/16 03:50:41;;;;;;;30.13;14.57;;;;;;;-142.57;100.00;55573.75;4972827;28;20037;-77
2023/12/16 03:53:07;;;;;;;31.75;13.70;;;;;;;-142.57;100.00;55549.50;4972778;28;20049;-75
2023/12/16 03:55:32;;;;;;;30.67;14.00;;;;;;;-142.57;100.00;55585.84;4973971;28;20117;-76
2023/12/16 03:57:58;;;;;;;30.85;14.95;;;;;;;-142.57;100.00;55597.97;4964514;28;20071;-75
2023/12/16 04:00:24;;;;;;;29.33;13.63;;;;;;;-142.57;100.00;55595.97;4959306;28;20031;-78
2023/12/16 04:02:49;;;;;;;28.40;13.82;;;;;;;-142.57;100.00;55620.22;4958617;28;20031;-77
2023/12/16 04:05:15;;;;;;;31.48;13.60;;;;;;;-142.57;100.00;55561.63;4967334;28;20110;-76
2023/12/16 04:07:40;;;;;;;28.13;13.23;;;;;;;-142.57;100.00;55589.91;4967071;28;20495;-76
2023/12/16 04:10:06;;;;;;;28.48;13.80;;;;;;;-142.57;100.00;55604.03;4953597;28;20042;-75
2023/12/16 04:12:32;;;;;;;27.85;14.32;;;;;;;-142.57;100.00;55567.69;4954768;28;20473;-77
2023/12/16 04:14:58;;;;;;;29.90;13.32;;;;;;;-142.57;100.00;55533.31;4958494;28;20129;-76
2023/12/16 04:17:23;;;;;;;34.10;14.07;;;;;;;-142.57;100.00;55545.44;4969916;28;20024;-79
2023/12/16 04:19:53;;;;;;;31.65;14.38;;;;;;;-142.57;100.00;55563.63;4953929;28;20122;-78
2023/12/16 04:22:20;;;;;;;31.00;14.85;;;;;;;-142.57;100.00;55523.22;4953312;28;20035;-77
2023/12/16 04:24:46;;;;;;;31.90;15.77;;;;;;;-142.57;100.00;55565.66;4953766;28;20098;-77
2023/12/16 04:27:14;;;;;;;30.67;15.73;;;;;;;-142.57;100.00;55543.44;4954118;28;20031;-76
2023/12/16 04:29:40;;;;;;;32.17;15.95;;;;;;;-142.57;100.00;55597.97;4936710;28;20030;-76
2023/12/16 04:32:06;;;;;;;28.88;14.98;;;;;;;-142.57;100.00;55561.63;4960094;28;20032;-76
2023/12/16 04:34:31;;;;;;;36.05;16.50;;;;;;;-142.57;100.00;55577.78;4953326;28;20398;-76
2023/12/16 04:36:57;;;;;;;32.78;16.00;;;;;;;-142.57;100.00;55595.97;4953921;28;20067;-76
2023/12/16 04:39:23;;;;;;;33.35;16.67;;;;;;;-142.57;100.00;55595.97;4952371;28;20058;-79
2023/12/16 04:41:48;;;;;;;33.20;16.30;;;;;;;-142.57;100.00;55563.63;4953128;28;20039;-77
2023/12/16 04:44:14;;;;;;;29.90;15.55;;;;;;;-142.57;100.00;55595.97;4965524;28;20162;-78
2023/12/16 04:46:39;;;;;;;34.78;16.92;;;;;;;-142.57;100.00;55587.88;4965058;28;20066;-80
2023/12/16 04:49:05;;;;;;;33.13;15.60;;;;;;;-142.57;100.00;55565.66;4942699;28;20031;-79
2023/12/16 04:51:30;;;;;;;32.80;16.52;;;;;;;-142.57;100.00;55593.94;4954409;28;20151;-77
2023/12/16 04:53:56;;;;;;;33.00;16.30;;;;;;;-142.57;100.00;55595.97;4942412;29;20042;-78
2023/12/16 04:56:22;;;;;;;37.38;16.40;;;;;;;-142.57;100.00;55579.81;4956660;28;20079;-78
2023/12/16 04:58:48;;;;;;;35.80;17.20;;;;;;;-142.57;100.00;55567.69;4953138;28;20070;-78
2023/12/16 05:01:14;;;;;;;37.67;17.52;;;;;;;-142.57;100.00;55553.53;4953251;28;20057;-78
2023/12/16 05:03:41;;;;;;;35.88;16.00;;;;;;;-142.57;100.00;55557.56;4953647;28;20028;-77
2023/12/16 05:06:07;;;;;;;32.17;16.67;;;;;;;-142.57;100.00;55531.31;4953276;28;20331;-79
2023/12/16 05:08:33;;;;;;;31.25;16.65;;;;;;;-142.57;100.00;55567.69;4955796;28;20027;-81
2023/12/16 05:10:58;;;;;;;33.50;16.35;;;;;;;-142.57;100.00;55555.56;4954291;28;20499;-77
2023/12/16 05:13:24;;;;;;;34.13;16.50;;;;;;;-142.57;100.00;55555.56;4961365;28;20473;-76
2023/12/16 05:15:51;;;;;;;33.42;16.13;;;;;;;-142.57;100.00;55537.38;4960787;28;20058;-79
2023/12/16 05:18:20;;;;;;;34.90;16.13;;;;;;;-142.57;100.00;55553.53;4943932;28;20486;-78
2023/12/16 05:20:45;;;;;;;31.98;16.02;;;;;;;-142.57;100.00;55513.13;4957914;28;20045;-77
2023/12/16 05:23:11;;;;;;;36.75;17.33;;;;;;;-142.57;100.00;55535.34;4960184;28;20043;-78
2023/12/16 05:25:39;;;;;;;35.28;16.92;;;;;;;-142.57;100.00;55537.38;4959925;28;20448;-81
2023/12/16 05:28:05;;;;;;;33.92;17.90;;;;;;;-142.57;100.00;55488.88;4956215;28;20034;-81
2023/12/16 05:30:30;;;;;;;33.72;16.80;;;;;;;-142.57;100.00;55539.38;4964820;28;20075;-82
2023/12/16 05:32:56;;;;;;;29.95;15.57;;;;;;;-142.57;100.00;55523.22;4958358;28;20533;-78
2023/12/16 05:35:21;;;;;;;30.88;16.65;;;;;;;-142.57;100.00;55517.16;4971600;28;20034;-79
2023/12/16 05:37:47;;;;;;;35.88;16.77;;;;;;;-142.57;100.00;55519.19;4981981;28;20445;-85
2023/12/16 05:40:13;;;;;;;33.42;16.77;;;;;;;-142.57;100.00;55519.19;4959108;28;20034;-80
2023/12/16 05:42:40;;;;;;;36.28;17.38;;;;;;;-142.57;100.00;55454.53;4972028;28;20089;-82
2023/12/16 05:45:06;;;;;;;33.05;17.58;;;;;;;-142.57;100.00;55462.63;4965558;28;20476;-81
2023/12/16 05:47:32;;;;;;;37.67;18.20;;;;;;;-142.57;100.00;55511.09;4969017;28;20035;-81
2023/12/16 05:49:57;;;;;;;36.15;17.92;;;;;;;-142.57;100.00;55442.41;4956444;28;20113;-84
2023/12/16 05:52:23;;;;;;;34.80;17.02;;;;;;;-142.57;100.00;55462.63;4961492;28;20440;-81
2023/12/16 05:54:48;;;;;;;37.90;17.52;;;;;;;-142.57;100.00;55460.59;4959489;28;20062;-81
2023/12/16 05:57:14;;;;;;;33.25;16.95;;;;;;;-142.57;100.00;55474.72;4955234;28;20042;-81
2023/12/16 05:59:39;;;;;;;32.40;15.65;;;;;;;-142.57;100.00;55490.91;4968205;28;20038;-78
2023/12/16 06:02:05;;;;;;;31.13;15.77;;;;;;;-142.57;100.00;55454.53;4949811;28;20427;-82
2023/12/16 06:04:30;;;;;;;30.67;15.68;;;;;;;-142.57;100.00;55450.50;4964680;28;20078;-82
2023/12/16 06:06:56;;;;;;;35.10;16.02;;;;;;;-142.57;100.00;55460.59;4965486;28;20045;-84
2023/12/16 06:09:22;;;;;;;32.40;16.00;;;;;;;-142.57;100.00;55458.56;4970070;28;20402;-87
2023/12/16 06:11:48;;;;;;;34.45;15.13;;;;;;;-142.57;100.00;55466.66;4940240;29;20043;-81
2023/12/16 06:14:13;;;;;;;34.50;15.75;;;;;;;-142.57;100.00;55436.34;4958201;28;20033;-80
2023/12/16 06:16:39;;;;;;;35.33;16.23;;;;;;;-142.57;100.00;55462.63;4957209;28;20055;-81
2023/12/16 06:19:04;;;;;;;38.45;16.30;;;;;;;-142.57;100.00;55422.22;4956927;28;20090;-79
2023/12/16 06:21:30;;;;;;;33.50;16.05;;;;;;;-142.57;100.00;55430.28;4956969;29;20522;-86
2023/12/16 06:23:58;;;;;;;36.75;18.23;;;;;;;-142.57;100.00;55418.16;4956901;28;20039;-82
2023/12/16 06:26:24;;;;;;;35.17;17.08;;;;;;;-142.57;100.00;55450.50;4956912;28;20030;-79
2023/12/16 06:28:49;;;;;;;34.78;17.70;;;;;;;-142.57;100.00;55414.13;4956562;28;20043;-80
2023/12/16 06:31:16;;;;;;;34.78;16.58;;;;;;;-142.57;100.00;55406.03;4956517;28;20046;-82
2023/12/16 06:33:42;;;;;;;47.35;18.50;;;;;;;-142.57;100.00;55446.44;4956997;28;20039;-81
2023/12/16 06:36:07;;;;;;;41.42;18.52;;;;;;;-142.57;100.00;55482.81;4956692;28;20066;-83
2023/12/16 06:38:33;;;;;;;34.55;16.85;;;;;;;-142.57;100.00;55438.38;4956360;28;20106;-81
2023/12/16 06:40:59;;;;;;;36.92;18.35;;;;;;;-142.57;100.00;55470.69;4956609;28;20046;-80
2023/12/16 06:43:24;;;;;;;36.28;18.02;;;;;;;-142.57;100.00;55434.31;4956546;28;20118;-81
2023/12/16 06:45:50;;;;;;;41.28;18.30;;;;;;;-142.57;100.00;55462.63;4956517;28;20035;-79
2023/12/16 06:48:15;;;;;;;41.95;18.23;;;;;;;-142.57;100.00;55464.63;4952699;28;20036;-80
2023/12/16 06:50:41;;;;;;;38.60;18.10;;;;;;;-142.57;100.00;55474.72;4958788;28;20059;-80
2023/12/16 06:53:07;;;;;;;43.05;20.05;;;;;;;-142.57;100.00;55472.72;4960948;28;20043;-80
2023/12/16 06:55:33;;;;;;;47.90;18.55;;;;;;;-142.57;100.00;55464.63;4960031;28;20031;-81
2023/12/16 06:57:59;;;;;;;31.50;17.05;;;;;;;-142.57;100.00;55519.19;4965692;28;20509;-79
2023/12/16 07:00:25;;;;;;;35.97;18.55;;;;;;;-142.57;100.00;55492.91;4955004;28;20025;-81
2023/12/16 07:02:50;;;;;;;38.42;18.48;;;;;;;-142.57;100.00;55507.06;4959277;28;20473;-78
2023/12/16 07:05:16;;;;;;;45.53;20.45;;;;;;;-142.57;100.00;55531.31;4943887;28;20044;-81
2023/12/16 07:07:44;;;;;;;38.97;19.55;;;;;;;-142.57;100.00;55614.16;4953198;28;20039;-80
2023/12/16 07:10:10;;;;;;;40.78;19.17;;;;;;;-142.57;100.00;55664.66;4957140;28;20179;-78
2023/12/16 07:12:36;;;;;;;38.13;18.13;;;;;;;-142.57;100.00;55721.22;4969197;28;20084;-77
2023/12/16 07:15:01;;;;;;;38.58;17.27;;;;;;;-142.57;100.00;55765.69;4958634;28;20036;-79
2023/12/16 07:17:27;;;;;;;45.47;18.38;;;;;;;-142.57;100.00;55791.94;4946049;28;20440;-78
2023/12/16 07:19:52;;;;;;;38.65;18.45;;;;;;;-142.57;100.00;55870.75;4953928;28;20636;-78
2023/12/16 07:22:18;;;;;;;36.67;17.55;;;;;;;-142.57;100.00;55935.41;4960982;28;20031;-77
2023/12/16 07:24:45;;;;;;;45.58;17.85;;;;;;;-142.57;100.00;55899.03;4950847;28;20043;-79
2023/12/16 07:27:11;;;;;;;34.35;17.50;;;;;;;-142.57;100.00;55866.72;4947010;28;20045;-77
2023/12/16 07:29:36;;;;;;;34.13;16.27;;;;;;;-142.57;100.00;55911.16;4957222;28;20483;-79
2023/12/16 07:32:05;;;;;;;25.58;14.80;;;;;;;-142.57;100.00;55947.53;4948004;28;20126;-79
2023/12/16 07:34:31;;;;;;;41.30;14.07;;;;;;;-142.57;100.00;55992.00;4941711;28;20042;-77
2023/12/16 07:36:57;;;;;;;131.25;21.02;;;;;;;-142.57;100.00;56030.38;4947480;28;20465;-78
2023/12/16 07:39:24;;;;;;;88.40;17.33;;;;;;;-142.57;100.00;56036.44;4974731;28;20470;-80
2023/12/16 07:41:49;;;;;;;30.38;13.65;;;;;;;-142.57;100.00;56109.19;4947806;28;20043;-80
2023/12/16 07:44:15;;;;;;;27.50;12.00;;;;;;;-142.57;100.00;56107.19;4955201;28;20118;-80
2023/12/16 07:46:41;;;;;;;29.58;12.02;;;;;;;-142.57;100.00;56125.38;4946720;28;20038;-80
2023/12/16 07:49:07;;;;;;;41.47;13.57;;;;;;;-142.57;100.00;56060.69;4974538;28;20487;-78
2023/12/16 07:51:32;;;;;;;28.10;12.25;;;;;;;-142.57;100.00;56012.19;4956239;28;20046;-78
2023/12/16 07:53:58;;;;;;;18.88;9.93;;;;;;;-142.57;100.00;56050.59;4955363;28;20118;-77
2023/12/16 07:56:26;;;;;;;20.58;10.82;;;;;;;-142.57;100.00;55969.78;4955222;29;20047;-83
2023/12/16 07:58:52;;;;;;;25.58;10.85;;;;;;;-142.57;100.00;55874.78;4955296;28;20502;-79
2023/12/16 08:01:18;;;;;;;28.02;12.07;;;;;;;-142.57;100.00;55903.09;4955431;28;20028;-78
2023/12/16 08:03:45;;;;;;;32.38;12.43;;;;;;;-142.57;100.00;55923.28;4955453;28;20039;-80
2023/12/16 08:06:14;;;;;;;28.20;12.05;;;;;;;-142.57;100.00;55937.44;4975482;28;20141;-77
2023/12/16 08:08:40;;;;;;;27.08;13.45;;;;;;;-142.57;100.00;55971.78;4963842;28;20039;-80
2023/12/16 08:11:07;;;;;;;29.48;14.10;;;;;;;-142.57;100.00;56000.06;4962790;28;20446;-77
2023/12/16 08:13:34;;;;;;;33.05;13.77;;;;;;;-142.57;100.00;55917.22;4946012;28;20027;-77
2023/12/16 08:16:00;;;;;;;47.08;14.45;;;;;;;-142.57;100.00;55850.56;4974251;28;20039;-78
2023/12/16 08:18:28;;;;;;;33.15;13.73;;;;;;;-142.57;100.00;55895.00;4975844;28;20035;-79
2023/12/16 08:20:54;;;;;;;47.95;14.60;;;;;;;-142.57;100.00;55874.78;4978101;28;20092;-78
2023/12/16 08:23:23;;;;;;;29.83;13.90;;;;;;;-142.57;100.00;55903.09;4986481;28;20026;-80
2023/12/16 08:25:48;;;;;;;40.17;16.60;;;;;;;-142.57;100.00;55842.47;4987674;28;20042;-80
2023/12/16 08:28:17;;;;;;;26.52;13.27;;;;;;;-142.57;100.00;55830.34;4969339;28;20030;-88
2023/12/16 08:30:44;;;;;;;36.00;15.38;;;;;;;-142.57;100.00;55826.31;4941761;28;20034;-81
2023/12/16 08:33:10;;;;;;;57.83;17.25;;;;;;;-142.57;100.00;55822.25;4974834;28;20042;-80
2023/12/16 08:35:36;;;;;;;37.55;17.05;;;;;;;-142.57;100.00;55828.31;4942908;29;20039;-79
2023/12/16 08:38:02;;;;;;;42.78;17.55;;;;;;;-142.57;100.00;55818.22;4971789;28;20110;-80
2023/12/16 08:40:28;;;;;;;41.85;17.10;;;;;;;-142.57;100.00;55878.84;4973899;28;20039;-79
2023/12/16 08:42:56;;;;;;;53.70;18.08;;;;;;;-142.57;100.00;55828.31;4968658;28;20054;-81
2023/12/16 08:45:22;;;;;;;47.58;20.35;;;;;;;-142.57;100.00;55834.38;4956684;28;20102;-82
2023/12/16 08:47:47;;;;;;;37.65;18.52;;;;;;;-142.57;100.00;55773.78;4962696;28;20450;-80
2023/12/16 08:50:13;;;;;;;37.08;17.52;;;;;;;-142.57;100.00;55834.38;4973115;28;20055;-82
2023/12/16 08:52:39;;;;;;;33.55;15.40;;;;;;;-142.57;100.00;55814.19;4959204;28;20427;-79
2023/12/16 08:55:05;;;;;;;37.10;16.67;;;;;;;-142.57;100.00;55820.25;4954272;28;20047;-81
2023/12/16 08:57:32;;;;;;;32.35;15.70;;;;;;;-142.57;100.00;55820.25;4955750;28;20059;-80
2023/12/16 08:59:57;;;;;;;44.75;16.20;;;;;;;-142.57;100.00;55842.47;4955931;28;20038;-80
2023/12/16 09:02:23;;;;;;;50.13;15.07;;;;;;;-142.57;100.00;55854.59;4954765;28;20446;-81
2023/12/16 09:04:49;;;;;;;147.40;20.35;;;;;;;-142.57;100.00;55880.84;4937905;29;20434;-82
2023/12/16 09:07:15;;;;;;;124.05;17.95;;;;;;;-142.57;100.00;55858.63;4955047;28;20043;-80
2023/12/16 09:09:41;;;;;;;35.42;12.82;;;;;;;-142.57;100.00;55882.88;4954121;28;20495;-80
2023/12/16 09:12:09;;;;;;;102.13;18.67;;;;;;;-142.57;100.00;55899.03;4954279;28;20398;-81
2023/12/16 09:14:35;;;;;;;104.05;18.90;;;;;;;-142.57;100.00;55929.34;4954155;28;20051;-84
2023/12/16 09:17:00;;;;;;;99.32;16.38;;;;;;;-142.57;100.00;55973.81;4954203;29;20085;-82
2023/12/16 09:19:26;;;;;;;84.03;17.05;;;;;;;-142.57;100.00;55909.16;4937293;29;20046;-83
2023/12/16 09:21:51;;;;;;;50.05;15.27;;;;;;;-142.57;100.00;55866.72;4954289;28;20493;-83
2023/12/16 09:24:20;;;;;;;45.35;15.00;;;;;;;-142.57;100.00;55907.13;4954406;28;20090;-80
2023/12/16 09:26:46;;;;;;;76.72;16.20;;;;;;;-142.57;100.00;55951.59;4940907;28;20039;-81
2023/12/16 09:29:13;;;;;;;42.72;15.38;;;;;;;-142.57;100.00;55925.31;4957969;28;20038;-81
2023/12/16 09:31:39;;;;;;;61.17;15.93;;;;;;;-142.57;100.00;55933.41;4957852;28;20066;-81
2023/12/16 09:34:04;;;;;;;29.10;13.55;;;;;;;-142.57;100.00;55939.47;4940829;29;20509;-80
2023/12/16 09:36:30;;;;;;;73.82;16.42;;;;;;;-142.57;100.00;55927.34;4957930;29;20027;-82
2023/12/16 09:38:57;;;;;;;235.40;26.02;;;;;;;-142.57;100.00;55963.72;4957543;28;20043;-80
2023/12/16 09:41:28;;;;;;;125.75;18.50;;;;;;;-142.57;100.00;55931.38;4957690;28;20035;-80
2023/12/16 09:43:56;;;;;;;28.95;15.25;;;;;;;-142.57;100.00;55951.59;4957848;28;20046;-80
2023/12/16 09:46:34;;;;;;;42.85;15.50;;;;;;;-142.57;100.00;55935.41;4957720;28;20134;-80
2023/12/16 09:49:00;;;;;;;67.35;17.98;;;;;;;-142.57;100.00;55919.25;4957696;28;20035;-82
2023/12/16 09:51:26;;;;;;;76.20;16.52;;;;;;;-142.57;100.00;55927.34;4957485;28;20057;-82
2023/12/16 09:53:53;;;;;;;27.75;13.93;;;;;;;-142.57;100.00;55939.47;4924455;28;20117;-82
2023/12/16 09:56:19;;;;;;;39.25;15.52;;;;;;;-142.57;100.00;55947.53;4958057;28;20042;-82
2023/12/16 09:58:46;;;;;;;54.30;17.02;;;;;;;-142.57;100.00;55971.78;4957943;28;20070;-80
2023/12/16 10:01:12;;;;;;;33.55;15.73;;;;;;;-142.57;100.00;55981.88;4957864;28;20037;-80
2023/12/16 10:03:39;;;;;;;164.43;21.42;;;;;;;-142.57;100.00;55996.03;4957148;28;20058;-80
2023/12/16 10:06:06;;;;;;;37.03;15.18;;;;;;;-142.57;100.00;56002.09;4939792;29;20398;-82
2023/12/16 10:08:36;;;;;;;36.42;15.45;;;;;;;-142.57;100.00;56004.13;4957409;29;20150;-81
2023/12/16 10:11:03;;;;;;;64.35;15.88;;;;;;;-142.57;100.00;55971.78;4957260;28;20035;-80
2023/12/16 10:13:30;;;;;;;29.25;15.20;;;;;;;-142.57;100.00;55963.72;4957333;29;20027;-79
2023/12/16 10:15:57;;;;;;;32.20;15.55;;;;;;;-142.57;100.00;55931.38;4957421;28;20508;-80
2023/12/16 10:18:22;;;;;;;29.92;14.88;;;;;;;-142.57;100.00;55985.94;4957142;28;20087;-82
2023/12/16 10:20:48;;;;;;;26.48;14.25;;;;;;;-142.57;100.00;55959.66;4957040;28;20446;-80
2023/12/16 10:23:14;;;;;;;29.50;13.45;;;;;;;-142.57;100.00;55969.78;4957065;29;20034;-80
2023/12/16 10:25:41;;;;;;;27.80;13.88;;;;;;;-142.57;100.00;56010.19;4957425;28;20110;-80
2023/12/16 10:28:07;;;;;;;28.85;13.05;;;;;;;-142.57;100.00;55981.88;4957042;28;20039;-79
2023/12/16 10:30:33;;;;;;;24.15;13.05;;;;;;;-142.57;100.00;55947.53;4956996;28;20038;-82
2023/12/16 10:33:02;;;;;;;22.60;13.27;;;;;;;-142.57;100.00;55975.84;4945273;28;20063;-82
2023/12/16 10:35:28;;;;;;;23.77;12.48;;;;;;;-142.57;100.00;56016.25;4901403;28;20139;-79
2023/12/16 10:37:54;;;;;;;24.92;13.68;;;;;;;-142.57;100.00;55979.88;4922204;28;20740;-83
2023/12/16 10:40:20;;;;;;;23.73;13.35;;;;;;;-142.57;100.00;55979.88;4957923;28;20043;-79
2023/12/16 10:42:45;;;;;;;23.70;13.35;;;;;;;-142.57;100.00;55967.75;4958523;28;20042;-80
2023/12/16 10:45:12;;;;;;;27.13;14.98;;;;;;;-142.57;100.00;55927.34;4976158;28;20050;-79
2023/12/16 10:47:38;;;;;;;30.02;16.00;;;;;;;-142.57;100.00;55925.31;4958431;28;20066;-79
2023/12/16 10:50:05;;;;;;;26.73;14.70;;;;;;;-142.57;100.00;55957.66;4975783;28;20086;-80